Time;durP1;ratioP1;P1;durP2;ratioP2;P2;SDS_P1;SDS_P2;PMS_P1;PMS_P2;Temp;Humidity;BMP_temperature;BMP_pressure;BME280_temperature;BME280_humidity;BME280_pressure;Samples;Min_cycle;Max_cycle;Signal;HPM_P1;HPM_P2
2023/11/06 00:01:16;;;;;;;2.78;2.25;;;;;;;;;;10249107;29;20042;-60
2023/11/06 00:06:17;;;;;;;5.38;2.30;;;;;;;;;;10251583;28;20407;-60
2023/11/06 00:11:19;;;;;;;5.78;2.40;;;;;;;;;;10245950;28;20364;-59
2023/11/06 00:16:20;;;;;;;3.17;2.38;;;;;;;;;;10258172;28;20023;-59
2023/11/06 00:21:23;;;;;;;2.47;1.80;;;;;;;;;;10265164;28;20070;-59
2023/11/06 00:26:23;;;;;;;5.72;2.08;;;;;;;;;;10262473;28;20039;-59
2023/11/06 00:31:24;;;;;;;2.78;2.45;;;;;;;;;;10260583;28;20031;-60
2023/11/06 00:36:25;;;;;;;4.13;2.25;;;;;;;;;;10247759;28;20034;-60
2023/11/06 00:41:25;;;;;;;3.47;2.13;;;;;;;;;;10262085;28;20035;-59
2023/11/06 00:46:26;;;;;;;3.20;2.38;;;;;;;;;;10245158;28;20027;-59
2023/11/06 00:51:26;;;;;;;3.80;2.22;;;;;;;;;;10262016;28;20027;-60
2023/11/06 00:56:28;;;;;;;3.25;2.00;;;;;;;;;;10258720;28;20051;-59
2023/11/06 01:01:29;;;;;;;4.68;2.03;;;;;;;;;;10259169;28;20566;-61
2023/11/06 01:06:30;;;;;;;5.60;1.73;;;;;;;;;;10251564;28;20102;-62
2023/11/06 01:11:30;;;;;;;4.75;2.20;;;;;;;;;;10257486;28;20031;-62
2023/11/06 01:16:31;;;;;;;4.25;2.08;;;;;;;;;;10244655;29;20039;-61
2023/11/06 01:21:32;;;;;;;7.63;2.40;;;;;;;;;;10245352;28;20042;-61
2023/11/06 01:26:33;;;;;;;4.32;2.10;;;;;;;;;;10246328;28;20070;-62
2023/11/06 01:31:34;;;;;;;2.95;2.20;;;;;;;;;;10246543;29;20047;-62
2023/11/06 01:36:35;;;;;;;3.67;1.92;;;;;;;;;;10247165;28;20055;-62
2023/11/06 01:41:35;;;;;;;2.17;1.83;;;;;;;;;;10246586;29;20039;-62
2023/11/06 01:46:36;;;;;;;2.28;2.03;;;;;;;;;;10246445;29;20035;-62
2023/11/06 01:51:39;;;;;;;2.13;1.95;;;;;;;;;;10243857;28;20049;-62
2023/11/06 01:56:40;;;;;;;2.13;1.67;;;;;;;;;;10226845;28;20048;-62
2023/11/06 02:01:45;;;;;;;2.15;1.95;;;;;;;;;;10255287;28;20106;-61
2023/11/06 02:06:47;;;;;;;5.78;1.98;;;;;;;;;;10228626;28;20036;-61
2023/11/06 02:11:48;;;;;;;6.18;2.17;;;;;;;;;;10246489;28;20092;-62
2023/11/06 02:16:51;;;;;;;2.33;1.80;;;;;;;;;;10249015;28;20118;-62
2023/11/06 02:21:54;;;;;;;1.70;1.60;;;;;;;;;;10254113;28;20558;-62
2023/11/06 02:26:57;;;;;;;2.00;1.75;;;;;;;;;;10252824;28;20395;-62
2023/11/06 02:31:58;;;;;;;3.95;1.88;;;;;;;;;;10235422;28;20529;-61
2023/11/06 02:36:59;;;;;;;4.15;1.83;;;;;;;;;;10240483;28;20027;-62
2023/11/06 02:42:01;;;;;;;1.90;1.70;;;;;;;;;;10240444;29;20027;-61
2023/11/06 02:47:02;;;;;;;2.10;1.73;;;;;;;;;;10240200;28;20027;-62
2023/11/06 02:52:03;;;;;;;2.45;1.83;;;;;;;;;;10241893;28;20106;-61
2023/11/06 02:57:04;;;;;;;2.30;1.90;;;;;;;;;;10244555;28;20463;-62
2023/11/06 03:02:04;;;;;;;2.55;1.60;;;;;;;;;;10244234;29;20058;-61
2023/11/06 03:07:06;;;;;;;2.38;1.63;;;;;;;;;;10236399;29;20031;-62
2023/11/06 03:12:07;;;;;;;1.63;1.52;;;;;;;;;;10242441;29;20121;-61
2023/11/06 03:17:08;;;;;;;2.25;2.05;;;;;;;;;;10231340;28;20035;-61
2023/11/06 03:22:08;;;;;;;2.00;1.80;;;;;;;;;;10237464;28;20402;-60
2023/11/06 03:27:09;;;;;;;2.35;1.75;;;;;;;;;;10252824;28;20026;-59
2023/11/06 03:32:10;;;;;;;3.75;1.95;;;;;;;;;;10248306;28;20031;-60
2023/11/06 03:37:10;;;;;;;1.67;1.58;;;;;;;;;;10264758;28;20035;-60
2023/11/06 03:42:11;;;;;;;2.58;1.85;;;;;;;;;;10254274;28;20530;-61
2023/11/06 03:47:12;;;;;;;1.63;1.52;;;;;;;;;;10250371;28;20479;-61
2023/11/06 03:52:12;;;;;;;1.70;1.60;;;;;;;;;;10256706;28;20042;-60
2023/11/06 03:57:13;;;;;;;1.75;1.63;;;;;;;;;;10248012;28;20043;-61
2023/11/06 04:02:13;;;;;;;1.67;1.50;;;;;;;;;;10248326;29;20082;-61
2023/11/06 04:07:14;;;;;;;2.08;1.70;;;;;;;;;;10244140;29;20035;-60
2023/11/06 04:12:14;;;;;;;1.83;1.73;;;;;;;;;;10250852;29;20038;-60
2023/11/06 04:17:15;;;;;;;8.77;1.85;;;;;;;;;;10248215;29;20065;-60
2023/11/06 04:22:16;;;;;;;9.50;1.80;;;;;;;;;;10251524;28;20027;-60
2023/11/06 04:27:16;;;;;;;1.77;1.60;;;;;;;;;;10247150;28;20047;-60
2023/11/06 04:32:18;;;;;;;1.70;1.58;;;;;;;;;;10247877;28;20031;-61
2023/11/06 04:37:18;;;;;;;2.42;1.80;;;;;;;;;;10250810;28;20028;-60
2023/11/06 04:42:19;;;;;;;3.00;1.90;;;;;;;;;;10248020;28;20035;-61
2023/11/06 04:47:20;;;;;;;1.95;1.70;;;;;;;;;;10250048;29;20035;-59
2023/11/06 04:52:21;;;;;;;3.15;1.80;;;;;;;;;;10248531;28;20586;-60
2023/11/06 04:57:21;;;;;;;3.70;1.95;;;;;;;;;;10234659;28;20467;-62
2023/11/06 05:02:22;;;;;;;1.90;1.65;;;;;;;;;;10257316;28;20499;-60
2023/11/06 05:07:23;;;;;;;3.70;1.60;;;;;;;;;;10260401;28;20027;-61
2023/11/06 05:12:23;;;;;;;1.75;1.40;;;;;;;;;;10258538;28;20496;-62
2023/11/06 05:17:24;;;;;;;1.50;1.40;;;;;;;;;;10247198;28;20035;-61
2023/11/06 05:22:24;;;;;;;2.22;1.75;;;;;;;;;;10257421;28;20071;-61
2023/11/06 05:27:25;;;;;;;1.70;1.60;;;;;;;;;;10252138;28;20049;-61
2023/11/06 05:32:25;;;;;;;3.38;1.95;;;;;;;;;;10245412;28;20435;-61
2023/11/06 05:37:27;;;;;;;1.50;1.40;;;;;;;;;;10246449;29;20399;-61
2023/11/06 05:42:27;;;;;;;2.15;1.55;;;;;;;;;;10245009;29;20055;-61
2023/11/06 05:47:28;;;;;;;1.90;1.60;;;;;;;;;;10246940;29;20376;-61
2023/11/06 05:52:28;;;;;;;2.17;1.55;;;;;;;;;;10242071;29;20582;-61
2023/11/06 05:57:29;;;;;;;1.65;1.55;;;;;;;;;;10237759;28;20070;-61
2023/11/06 06:02:29;;;;;;;1.60;1.50;;;;;;;;;;10237283;29;20035;-61
2023/11/06 06:07:30;;;;;;;1.60;1.50;;;;;;;;;;10234177;28;20110;-60
2023/11/06 06:12:33;;;;;;;1.50;1.40;;;;;;;;;;10245418;29;20031;-60
2023/11/06 06:17:37;;;;;;;1.60;1.50;;;;;;;;;;10235001;28;20023;-60
2023/11/06 06:22:39;;;;;;;3.72;1.50;;;;;;;;;;10246204;29;20101;-60
2023/11/06 06:27:39;;;;;;;1.67;1.58;;;;;;;;;;10233813;28;20040;-59
2023/11/06 06:32:41;;;;;;;1.63;1.52;;;;;;;;;;10238934;28;20499;-59
2023/11/06 06:37:42;;;;;;;1.30;1.20;;;;;;;;;;10245601;28;20428;-60
2023/11/06 06:42:42;;;;;;;4.00;1.80;;;;;;;;;;10254603;28;20027;-60
2023/11/06 06:47:43;;;;;;;1.58;1.48;;;;;;;;;;10245449;28;21524;-61
2023/11/06 06:52:44;;;;;;;2.38;1.60;;;;;;;;;;10249535;28;20061;-60
2023/11/06 06:57:45;;;;;;;2.00;1.40;;;;;;;;;;10241720;28;20043;-60
2023/11/06 07:02:46;;;;;;;1.63;1.50;;;;;;;;;;10250272;28;20118;-60
2023/11/06 07:07:47;;;;;;;1.58;1.48;;;;;;;;;;10250661;28;20044;-60
2023/11/06 07:12:47;;;;;;;1.60;1.30;;;;;;;;;;10241240;28;20031;-59
2023/11/06 07:17:48;;;;;;;2.60;1.55;;;;;;;;;;10230535;29;20558;-59
2023/11/06 07:22:49;;;;;;;1.55;1.42;;;;;;;;;;10240166;29;20034;-60
2023/11/06 07:27:50;;;;;;;2.30;1.58;;;;;;;;;;10244440;28;20031;-59
2023/11/06 07:32:50;;;;;;;1.77;1.63;;;;;;;;;;10243537;28;20039;-59
2023/11/06 07:37:51;;;;;;;1.40;1.30;;;;;;;;;;10244289;28;20054;-59
2023/11/06 07:42:51;;;;;;;1.85;1.40;;;;;;;;;;10244355;28;20027;-59
2023/11/06 07:47:54;;;;;;;1.52;1.42;;;;;;;;;;10243819;29;20035;-59
2023/11/06 07:52:56;;;;;;;1.60;1.50;;;;;;;;;;10244379;29;20043;-59
2023/11/06 07:57:57;;;;;;;1.60;1.50;;;;;;;;;;10236058;28;20522;-59
2023/11/06 08:02:58;;;;;;;1.42;1.33;;;;;;;;;;10242312;28;20126;-59
2023/11/06 08:07:59;;;;;;;5.63;2.42;;;;;;;;;;10221515;28;20035;-59
2023/11/06 08:12:59;;;;;;;7.28;2.38;;;;;;;;;;10219163;28;20046;-59
2023/11/06 08:18:00;;;;;;;4.32;1.90;;;;;;;;;;10209759;28;20082;-58
2023/11/06 08:23:00;;;;;;;4.93;2.08;;;;;;;;;;10249325;28;20038;-60
2023/11/06 08:28:01;;;;;;;4.10;2.20;;;;;;;;;;10242196;28;20043;-59
2023/11/06 08:33:02;;;;;;;4.13;2.30;;;;;;;;;;10247705;28;20034;-61
2023/11/06 08:38:06;;;;;;;5.78;3.15;;;;;;;;;;10250214;28;20035;-59
2023/11/06 08:43:06;;;;;;;2.80;1.90;;;;;;;;;;10247453;28;20035;-59
2023/11/06 08:48:07;;;;;;;3.70;2.30;;;;;;;;;;10244605;28;20054;-59
2023/11/06 08:53:08;;;;;;;6.80;2.35;;;;;;;;;;10245555;28;20463;-59
2023/11/06 08:58:15;;;;;;;3.67;2.53;;;;;;;;;;10244401;28;20043;-58
2023/11/06 09:03:16;;;;;;;3.17;2.38;;;;;;;;;;10240281;28;20535;-60
2023/11/06 09:08:18;;;;;;;5.82;2.38;;;;;;;;;;10247151;28;20031;-59
2023/11/06 09:13:19;;;;;;;4.85;2.55;;;;;;;;;;10247676;28;20023;-59
2023/11/06 09:18:19;;;;;;;3.85;2.58;;;;;;;;;;10245786;28;20023;-59
2023/11/06 09:23:23;;;;;;;2.35;1.90;;;;;;;;;;10253293;28;20391;-60
2023/11/06 09:28:25;;;;;;;5.10;2.60;;;;;;;;;;10248273;28;20533;-60
2023/11/06 09:33:25;;;;;;;3.63;2.22;;;;;;;;;;10246100;28;20031;-60
2023/11/06 09:38:26;;;;;;;2.90;2.17;;;;;;;;;;10247405;28;20030;-60
2023/11/06 09:43:27;;;;;;;2.33;2.00;;;;;;;;;;10246337;28;20094;-60
2023/11/06 09:48:31;;;;;;;3.35;1.85;;;;;;;;;;10240632;28;20031;-61
2023/11/06 09:53:33;;;;;;;2.45;1.90;;;;;;;;;;10264462;28;20042;-60
2023/11/06 09:58:35;;;;;;;5.20;2.67;;;;;;;;;;10252643;28;20051;-61
2023/11/06 10:03:36;;;;;;;4.78;2.17;;;;;;;;;;10239334;28;20027;-61
2023/11/06 10:08:37;;;;;;;3.53;2.47;;;;;;;;;;10236184;28;20495;-61
2023/11/06 10:13:53;;;;;;;3.28;1.80;;;;;;;;;;10221081;28;20043;-61
2023/11/06 10:19:16;;;;;;;5.60;1.98;;;;;;;;;;10217972;28;20094;-61
2023/11/06 10:24:16;;;;;;;2.45;2.13;;;;;;;;;;10214627;28;20369;-61
2023/11/06 10:29:18;;;;;;;5.93;2.08;;;;;;;;;;10219003;28;20027;-60
2023/11/06 10:34:37;;;;;;;2.35;1.90;;;;;;;;;;10216106;28;20046;-61
2023/11/06 10:39:51;;;;;;;2.60;2.00;;;;;;;;;;10216615;28;20023;-60
2023/11/06 10:44:57;;;;;;;4.10;2.03;;;;;;;;;;10225642;28;20073;-60
2023/11/06 10:50:04;;;;;;;2.47;1.83;;;;;;;;;;10219930;28;20107;-59
2023/11/06 10:55:08;;;;;;;2.90;2.00;;;;;;;;;;10216784;28;20138;-60
2023/11/06 11:00:17;;;;;;;3.03;2.30;;;;;;;;;;10220431;28;20043;-61
2023/11/06 11:05:28;;;;;;;2.47;1.85;;;;;;;;;;10232235;28;20126;-64
2023/11/06 11:10:29;;;;;;;3.97;2.22;;;;;;;;;;10218007;28;20035;-62
2023/11/06 11:15:33;;;;;;;4.13;2.45;;;;;;;;;;10217758;28;20126;-62
2023/11/06 11:20:53;;;;;;;3.58;2.35;;;;;;;;;;10224153;28;20110;-64
2023/11/06 11:25:56;;;;;;;4.00;2.58;;;;;;;;;;10228805;28;20027;-63
2023/11/06 11:31:44;;;;;;;3.50;2.28;;;;;;;;;;10236860;28;20037;-63
2023/11/06 11:36:45;;;;;;;5.20;2.03;;;;;;;;;;10233846;28;20491;-61
2023/11/06 11:42:03;;;;;;;4.45;1.98;;;;;;;;;;10243423;28;20035;-62
2023/11/06 11:47:04;;;;;;;3.10;1.95;;;;;;;;;;10258335;28;20042;-62
2023/11/06 11:52:07;;;;;;;2.72;1.95;;;;;;;;;;10241925;28;20502;-62
2023/11/06 11:57:09;;;;;;;2.70;1.98;;;;;;;;;;10242804;28;20122;-62
2023/11/06 12:02:27;;;;;;;2.63;2.08;;;;;;;;;;10246395;28;20035;-60
2023/11/06 12:07:30;;;;;;;4.53;1.93;;;;;;;;;;10251923;28;20031;-61
2023/11/06 12:12:39;;;;;;;3.45;2.20;;;;;;;;;;10248586;28;20046;-61
2023/11/06 12:17:40;;;;;;;8.63;3.10;;;;;;;;;;10251623;28;20023;-60
2023/11/06 12:22:48;;;;;;;6.55;3.13;;;;;;;;;;10254236;28;20027;-61
2023/11/06 12:27:49;;;;;;;6.13;3.20;;;;;;;;;;10240768;28;20027;-61
2023/11/06 12:32:49;;;;;;;10.23;3.65;;;;;;;;;;10248638;28;20415;-61
2023/11/06 12:37:55;;;;;;;5.15;3.33;;;;;;;;;;10249400;28;20023;-59
2023/11/06 12:43:00;;;;;;;15.10;3.63;;;;;;;;;;10235038;28;20035;-60
2023/11/06 12:48:25;;;;;;;12.00;3.78;;;;;;;;;;10247094;28;20031;-59
2023/11/06 12:53:26;;;;;;;12.32;3.75;;;;;;;;;;10247438;28;20019;-60
2023/11/06 12:58:28;;;;;;;6.72;3.17;;;;;;;;;;10238042;28;20047;-59
2023/11/06 13:03:36;;;;;;;13.05;4.05;;;;;;;;;;10243655;28;20035;-61
2023/11/06 13:08:36;;;;;;;9.10;3.60;;;;;;;;;;10237816;28;20563;-60
2023/11/06 13:13:39;;;;;;;12.25;4.00;;;;;;;;;;10243586;28;20034;-60
2023/11/06 13:18:44;;;;;;;9.20;3.60;;;;;;;;;;10225332;28;20035;-60
2023/11/06 13:23:48;;;;;;;11.77;3.88;;;;;;;;;;10226347;28;20121;-60
2023/11/06 13:28:51;;;;;;;9.80;3.78;;;;;;;;;;10236451;28;20483;-60
2023/11/06 13:33:52;;;;;;;11.50;3.42;;;;;;;;;;10246729;28;20023;-60
2023/11/06 13:38:52;;;;;;;11.70;3.90;;;;;;;;;;10229120;28;20034;-60
2023/11/06 13:43:53;;;;;;;7.78;3.55;;;;;;;;;;10235011;28;20126;-61
2023/11/06 13:48:54;;;;;;;9.43;4.03;;;;;;;;;;10245341;28;20042;-62
2023/11/06 13:53:59;;;;;;;10.35;3.65;;;;;;;;;;10229050;28;20603;-58
2023/11/06 13:59:00;;;;;;;8.60;3.72;;;;;;;;;;10241855;28;20032;-61
2023/11/06 14:04:04;;;;;;;10.82;3.70;;;;;;;;;;10241350;28;20070;-61
2023/11/06 14:09:26;;;;;;;8.50;3.63;;;;;;;;;;10233274;28;20039;-62
2023/11/06 14:14:25;;;;;;;8.93;3.70;;;;;;;;;;10244868;28;20027;-60
2023/11/06 14:19:27;;;;;;;10.88;3.60;;;;;;;;;;10245160;28;20031;-60
2023/11/06 14:24:27;;;;;;;4.80;3.15;;;;;;;;;;10234777;28;20035;-61
2023/11/06 14:29:28;;;;;;;7.95;3.33;;;;;;;;;;10239450;28;20034;-60
2023/11/06 14:34:28;;;;;;;10.00;3.33;;;;;;;;;;10237963;28;20059;-59
2023/11/06 14:39:29;;;;;;;6.20;2.95;;;;;;;;;;10245088;28;20419;-60
2023/11/06 14:44:30;;;;;;;4.65;2.65;;;;;;;;;;10245078;28;20606;-61
2023/11/06 14:49:34;;;;;;;9.38;3.47;;;;;;;;;;10244740;28;20035;-61
2023/11/06 14:54:34;;;;;;;8.48;3.05;;;;;;;;;;10240621;28;20055;-62
2023/11/06 14:59:36;;;;;;;7.55;3.42;;;;;;;;;;10233635;28;20586;-65
2023/11/06 15:04:36;;;;;;;8.85;3.17;;;;;;;;;;10235627;28;20384;-62
2023/11/06 15:09:39;;;;;;;7.65;3.10;;;;;;;;;;10239920;28;20027;-60
2023/11/06 15:14:39;;;;;;;5.35;2.75;;;;;;;;;;10241942;28;20054;-61
2023/11/06 15:19:42;;;;;;;9.57;3.40;;;;;;;;;;10232710;28;20431;-61
2023/11/06 15:24:43;;;;;;;7.35;3.20;;;;;;;;;;10238753;28;20120;-61
2023/11/06 15:29:43;;;;;;;6.45;3.38;;;;;;;;;;10246548;28;20531;-62
2023/11/06 15:34:44;;;;;;;7.18;3.08;;;;;;;;;;10265040;28;20631;-62
2023/11/06 15:39:45;;;;;;;8.23;2.75;;;;;;;;;;10246578;28;20035;-61
2023/11/06 15:44:46;;;;;;;8.38;3.08;;;;;;;;;;10234078;28;20077;-62
2023/11/06 15:49:55;;;;;;;7.13;2.83;;;;;;;;;;10246340;28;20082;-62
2023/11/06 15:54:56;;;;;;;8.10;2.70;;;;;;;;;;10231306;28;20039;-62
2023/11/06 15:59:58;;;;;;;5.28;2.90;;;;;;;;;;10242961;28;20035;-61
2023/11/06 16:05:00;;;;;;;4.03;2.38;;;;;;;;;;10248471;28;20082;-62
2023/11/06 16:10:01;;;;;;;5.25;2.85;;;;;;;;;;10249956;28;20745;-64
2023/11/06 16:15:02;;;;;;;7.38;2.60;;;;;;;;;;10250004;28;20046;-60
2023/11/06 16:20:04;;;;;;;5.50;2.85;;;;;;;;;;10239450;28;20613;-60
2023/11/06 16:25:05;;;;;;;5.07;2.70;;;;;;;;;;10253251;28;20063;-60
2023/11/06 16:30:07;;;;;;;5.30;2.55;;;;;;;;;;10252314;28;20027;-60
2023/11/06 16:35:08;;;;;;;7.43;3.05;;;;;;;;;;10254092;28;20031;-60
2023/11/06 16:40:11;;;;;;;5.13;2.40;;;;;;;;;;10249499;28;20050;-60
2023/11/06 16:45:11;;;;;;;4.55;2.67;;;;;;;;;;10241882;28;20082;-60
2023/11/06 16:50:16;;;;;;;5.28;2.78;;;;;;;;;;10248686;28;20134;-61
2023/11/06 16:55:17;;;;;;;10.70;3.13;;;;;;;;;;10233234;28;20054;-61
2023/11/06 17:00:18;;;;;;;5.55;2.38;;;;;;;;;;10246787;28;20035;-60
2023/11/06 17:05:19;;;;;;;8.02;3.03;;;;;;;;;;10242559;28;20035;-61
2023/11/06 17:10:20;;;;;;;5.55;2.70;;;;;;;;;;10236557;28;20027;-63
2023/11/06 17:15:21;;;;;;;4.75;2.35;;;;;;;;;;10246384;28;20055;-61
2023/11/06 17:20:23;;;;;;;6.22;3.10;;;;;;;;;;10247218;28;20039;-61
2023/11/06 17:25:24;;;;;;;5.35;2.67;;;;;;;;;;10246704;28;20590;-61
2023/11/06 17:30:25;;;;;;;5.57;3.17;;;;;;;;;;10244851;28;20030;-63
2023/11/06 17:35:26;;;;;;;7.43;3.08;;;;;;;;;;10244114;28;20034;-63
2023/11/06 17:40:27;;;;;;;7.15;3.28;;;;;;;;;;10239673;28;20030;-61
2023/11/06 17:45:30;;;;;;;5.05;2.80;;;;;;;;;;10253286;28;20394;-59
2023/11/06 17:50:32;;;;;;;8.52;3.08;;;;;;;;;;10247066;28;20491;-62
2023/11/06 17:55:32;;;;;;;10.25;3.05;;;;;;;;;;10246787;28;20051;-62
2023/11/06 18:00:33;;;;;;;6.05;2.83;;;;;;;;;;10245745;28;20037;-59
2023/11/06 18:05:34;;;;;;;6.13;2.92;;;;;;;;;;10242715;28;20039;-61
2023/11/06 18:10:35;;;;;;;5.15;2.92;;;;;;;;;;10245489;28;20047;-61
2023/11/06 18:15:36;;;;;;;4.93;2.53;;;;;;;;;;10246106;28;20031;-60
2023/11/06 18:20:36;;;;;;;4.97;2.58;;;;;;;;;;10244260;28;20026;-60
2023/11/06 18:25:37;;;;;;;4.05;2.75;;;;;;;;;;10244599;28;20046;-61
2023/11/06 18:30:38;;;;;;;7.70;2.60;;;;;;;;;;10236949;29;20093;-60
2023/11/06 18:35:38;;;;;;;4.30;2.72;;;;;;;;;;10230027;29;20580;-61
2023/11/06 18:40:39;;;;;;;5.45;2.80;;;;;;;;;;10232933;28;20031;-60
2023/11/06 18:45:40;;;;;;;5.72;3.70;;;;;;;;;;10227959;29;20590;-60
2023/11/06 18:50:41;;;;;;;8.90;5.65;;;;;;;;;;10244559;28;20035;-60
2023/11/06 18:55:41;;;;;;;9.70;6.35;;;;;;;;;;10243222;28;20391;-60
2023/11/06 19:00:42;;;;;;;14.63;6.60;;;;;;;;;;10230720;28;20510;-59
2023/11/06 19:05:47;;;;;;;10.48;6.80;;;;;;;;;;10242755;28;20138;-60
2023/11/06 19:10:49;;;;;;;17.85;6.65;;;;;;;;;;10224128;29;20122;-58
2023/11/06 19:15:51;;;;;;;13.75;6.47;;;;;;;;;;10244252;28;20039;-58
2023/11/06 19:20:51;;;;;;;11.15;6.20;;;;;;;;;;10236435;28;20106;-58
2023/11/06 19:25:52;;;;;;;11.48;6.28;;;;;;;;;;10232592;29;20028;-58
2023/11/06 19:30:52;;;;;;;9.88;5.80;;;;;;;;;;10224270;28;20133;-57
2023/11/06 19:35:53;;;;;;;11.27;6.68;;;;;;;;;;10238860;28;20031;-58
2023/11/06 19:40:54;;;;;;;10.13;5.38;;;;;;;;;;10243476;28;20046;-58
2023/11/06 19:46:01;;;;;;;9.48;5.18;;;;;;;;;;10240557;28;20059;-58
2023/11/06 19:51:02;;;;;;;8.88;5.10;;;;;;;;;;10225677;28;20075;-57
2023/11/06 19:56:06;;;;;;;7.70;5.10;;;;;;;;;;10236004;28;20126;-58
2023/11/06 20:01:06;;;;;;;7.85;5.18;;;;;;;;;;10239517;29;20487;-58
2023/11/06 20:06:08;;;;;;;9.48;4.57;;;;;;;;;;10242397;29;20031;-58
2023/11/06 20:11:11;;;;;;;9.48;5.35;;;;;;;;;;10241224;28;20435;-58
2023/11/06 20:16:11;;;;;;;7.80;4.13;;;;;;;;;;10241585;28;20114;-58
2023/11/06 20:21:12;;;;;;;11.50;4.75;;;;;;;;;;10245731;28;20034;-58
2023/11/06 20:26:13;;;;;;;6.28;4.15;;;;;;;;;;10248684;28;20059;-57
2023/11/06 20:31:13;;;;;;;5.95;4.40;;;;;;;;;;10249307;28;20066;-57
2023/11/06 20:36:15;;;;;;;9.57;4.18;;;;;;;;;;10243738;28;20034;-59
2023/11/06 20:41:16;;;;;;;6.53;3.72;;;;;;;;;;10248667;29;20110;-60
2023/11/06 20:46:16;;;;;;;5.30;3.60;;;;;;;;;;10241867;28;20447;-59
2023/11/06 20:51:17;;;;;;;6.55;3.50;;;;;;;;;;10250011;28;20510;-59
2023/11/06 20:56:17;;;;;;;5.80;3.42;;;;;;;;;;10243539;28;20143;-59
2023/11/06 21:01:18;;;;;;;7.28;4.00;;;;;;;;;;10239255;28;20099;-59
2023/11/06 21:06:18;;;;;;;6.55;3.58;;;;;;;;;;10233704;28;20031;-59
2023/11/06 21:11:19;;;;;;;6.03;3.80;;;;;;;;;;10242527;28;20027;-60
2023/11/06 21:16:20;;;;;;;5.57;3.17;;;;;;;;;;10248939;28;20035;-59
2023/11/06 21:21:21;;;;;;;4.93;3.15;;;;;;;;;;10244377;28;20031;-59
2023/11/06 21:26:23;;;;;;;5.20;3.33;;;;;;;;;;10243055;28;20094;-59
2023/11/06 21:31:23;;;;;;;6.88;3.55;;;;;;;;;;10253503;28;20038;-59
2023/11/06 21:36:25;;;;;;;4.85;3.63;;;;;;;;;;10237182;28;20050;-59
2023/11/06 21:41:26;;;;;;;9.80;3.47;;;;;;;;;;10249600;28;20380;-60
2023/11/06 21:46:27;;;;;;;10.52;3.78;;;;;;;;;;10243809;28;20035;-60
2023/11/06 21:51:27;;;;;;;10.73;4.22;;;;;;;;;;10242816;29;20630;-60
2023/11/06 21:56:32;;;;;;;10.52;3.70;;;;;;;;;;10237008;28;20051;-60
2023/11/06 22:01:33;;;;;;;11.30;3.70;;;;;;;;;;10232462;28;20572;-59
2023/11/06 22:06:33;;;;;;;12.70;3.78;;;;;;;;;;10231101;28;20044;-60
2023/11/06 22:11:34;;;;;;;7.45;3.38;;;;;;;;;;10237648;28;20039;-60
2023/11/06 22:16:35;;;;;;;9.05;3.65;;;;;;;;;;10211511;29;20032;-60
2023/11/06 22:21:36;;;;;;;6.85;3.25;;;;;;;;;;10218521;28;20023;-59
2023/11/06 22:26:37;;;;;;;5.70;3.33;;;;;;;;;;10230449;29;20039;-59
2023/11/06 22:31:42;;;;;;;8.75;3.35;;;;;;;;;;10237465;28;20032;-59
2023/11/06 22:36:42;;;;;;;9.52;3.83;;;;;;;;;;10259638;28;20039;-60
2023/11/06 22:41:43;;;;;;;8.90;3.35;;;;;;;;;;10237122;28;20038;-62
2023/11/06 22:46:44;;;;;;;4.47;2.85;;;;;;;;;;10240061;28;20035;-60
2023/11/06 22:51:44;;;;;;;5.15;2.88;;;;;;;;;;10246450;28;20122;-61
2023/11/06 22:56:45;;;;;;;10.57;3.72;;;;;;;;;;10247005;28;20043;-61
2023/11/06 23:01:47;;;;;;;7.75;3.33;;;;;;;;;;10242352;28;20390;-60
2023/11/06 23:06:47;;;;;;;8.23;3.20;;;;;;;;;;10244022;28;20031;-60
2023/11/06 23:11:48;;;;;;;5.28;3.00;;;;;;;;;;10243709;28;20057;-60
2023/11/06 23:16:50;;;;;;;7.97;3.25;;;;;;;;;;10244643;28;20114;-60
2023/11/06 23:21:51;;;;;;;9.32;3.75;;;;;;;;;;10245774;28;20031;-61
2023/11/06 23:26:52;;;;;;;6.63;3.33;;;;;;;;;;10244461;28;20399;-60
2023/11/06 23:31:52;;;;;;;6.25;3.22;;;;;;;;;;10248418;28;20114;-60
2023/11/06 23:36:53;;;;;;;8.52;3.13;;;;;;;;;;10244121;29;20062;-60
2023/11/06 23:41:54;;;;;;;6.65;2.78;;;;;;;;;;10243417;29;20476;-60
2023/11/06 23:46:55;;;;;;;10.68;3.42;;;;;;;;;;10243548;28;20443;-61
2023/11/06 23:51:55;;;;;;;5.72;2.95;;;;;;;;;;10250814;28;20116;-60
2023/11/06 23:56:56;;;;;;;5.78;2.88;;;;;;;;;;10237289;29;20047;-60
